createdAt,value
2023-03-05T00:01:56.128Z,5.75
2023-03-05T00:04:23.714Z,6.05
2023-03-05T00:06:50.963Z,6.57
2023-03-05T00:09:18.124Z,6.00
2023-03-05T00:11:45.277Z,6.32
2023-03-05T00:14:12.675Z,7.68
2023-03-05T00:16:40.080Z,6.43
2023-03-05T00:19:07.531Z,6.40
2023-03-05T00:21:38.545Z,7.68
2023-03-05T00:24:13.880Z,6.88
2023-03-05T00:26:41.313Z,6.95
2023-03-05T00:29:09.648Z,7.35
2023-03-05T00:31:38.234Z,7.40
2023-03-05T00:34:09.223Z,8.02
2023-03-05T00:36:40.758Z,8.40
2023-03-05T00:39:08.011Z,7.72
2023-03-05T00:41:35.167Z,8.38
2023-03-05T00:44:02.371Z,8.35
2023-03-05T00:46:29.723Z,8.13
2023-03-05T00:48:57.610Z,7.40
2023-03-05T00:51:25.820Z,7.88
2023-03-05T00:53:53.196Z,7.97
2023-03-05T00:56:20.525Z,7.70
2023-03-05T00:58:47.735Z,7.63
2023-03-05T01:01:14.940Z,7.95
2023-03-05T01:03:42.166Z,7.40
2023-03-05T01:06:12.047Z,7.25
2023-03-05T01:08:39.599Z,7.82
2023-03-05T01:11:07.643Z,7.60
2023-03-05T01:13:35.141Z,8.07
2023-03-05T01:16:04.095Z,7.55
2023-03-05T01:18:31.381Z,7.13
2023-03-05T01:20:58.477Z,7.60
2023-03-05T01:23:25.759Z,7.45
2023-03-05T01:25:58.000Z,8.95
2023-03-05T01:28:25.860Z,7.85
2023-03-05T01:30:53.365Z,8.30
2023-03-05T01:33:20.685Z,7.53
2023-03-05T01:35:49.079Z,7.57
2023-03-05T01:38:16.867Z,8.32
2023-03-05T01:40:44.693Z,8.85
2023-03-05T01:43:12.094Z,8.48
2023-03-05T01:46:00.236Z,9.23
2023-03-05T01:48:27.914Z,7.82
2023-03-05T01:50:55.111Z,8.27
2023-03-05T01:53:22.284Z,9.43
2023-03-05T01:55:49.928Z,8.52
2023-03-05T01:58:18.050Z,9.10
2023-03-05T02:00:48.592Z,8.57
2023-03-05T02:03:16.579Z,7.82
2023-03-05T02:05:44.650Z,9.07
2023-03-05T02:08:17.523Z,8.98
2023-03-05T02:10:51.027Z,9.35
2023-03-05T02:13:23.647Z,9.45
2023-03-05T02:15:53.036Z,9.45
2023-03-05T02:18:21.288Z,9.73
2023-03-05T02:20:55.728Z,10.00
2023-03-05T02:23:29.160Z,10.65
2023-03-05T02:25:56.756Z,9.18
2023-03-05T02:28:37.654Z,9.88
2023-03-05T02:31:16.142Z,9.30
2023-03-05T02:33:44.157Z,7.75
2023-03-05T02:36:12.349Z,8.70
2023-03-05T02:38:40.804Z,8.82
2023-03-05T02:41:09.457Z,8.20
2023-03-05T02:43:37.215Z,8.30
2023-03-05T02:46:05.094Z,8.75
2023-03-05T02:48:32.754Z,8.35
2023-03-05T02:51:01.662Z,8.30
2023-03-05T02:53:28.869Z,8.45
2023-03-05T02:55:56.672Z,9.07
2023-03-05T02:58:23.859Z,8.23
2023-03-05T03:00:51.348Z,8.00
2023-03-05T03:03:18.716Z,8.73
2023-03-05T03:05:45.914Z,8.85
2023-03-05T03:08:12.995Z,10.13
2023-03-05T03:10:40.056Z,9.30
2023-03-05T03:13:07.182Z,9.10
2023-03-05T03:15:34.962Z,8.95
2023-03-05T03:18:02.012Z,8.40
2023-03-05T03:20:29.045Z,8.55
2023-03-05T03:22:56.170Z,9.18
2023-03-05T03:25:23.509Z,9.07
2023-03-05T03:27:52.583Z,8.93
2023-03-05T03:30:19.700Z,8.93
2023-03-05T03:32:48.129Z,8.90
2023-03-05T03:35:15.228Z,8.85
2023-03-05T03:37:42.400Z,9.18
2023-03-05T03:40:11.356Z,9.75
2023-03-05T03:42:38.470Z,8.23
2023-03-05T03:45:06.041Z,7.72
2023-03-05T03:47:33.197Z,8.65
2023-03-05T03:50:00.306Z,8.82
2023-03-05T03:52:27.641Z,9.50
2023-03-05T03:55:01.442Z,8.18
2023-03-05T03:57:30.250Z,6.45
2023-03-05T03:59:57.406Z,7.55
2023-03-05T04:02:24.667Z,8.05
2023-03-05T04:04:52.584Z,8.50
2023-03-05T04:07:20.096Z,8.65
2023-03-05T04:09:47.259Z,9.38
2023-03-05T04:12:18.278Z,8.82
2023-03-05T04:14:47.066Z,8.18
2023-03-05T04:17:14.411Z,8.57
2023-03-05T04:19:42.696Z,11.57
2023-03-05T04:22:12.773Z,11.25
2023-03-05T04:24:40.043Z,11.07
2023-03-05T04:27:07.469Z,9.98
2023-03-05T04:29:35.344Z,8.32
2023-03-05T04:32:02.590Z,8.27
2023-03-05T04:34:29.802Z,8.43
2023-03-05T04:36:57.424Z,9.40
2023-03-05T04:39:25.121Z,8.07
2023-03-05T04:41:52.379Z,9.82
2023-03-05T04:44:19.506Z,10.55
2023-03-05T04:46:46.583Z,12.23
2023-03-05T04:49:13.696Z,12.23
2023-03-05T04:51:40.786Z,12.57
2023-03-05T04:54:08.736Z,12.55
2023-03-05T04:56:35.946Z,13.07
2023-03-05T04:59:03.104Z,13.50
2023-03-05T05:01:30.277Z,13.70
2023-03-05T05:03:57.348Z,13.63
2023-03-05T05:06:24.477Z,12.30
2023-03-05T05:08:51.520Z,13.63
2023-03-05T05:11:18.653Z,11.45
2023-03-05T05:13:45.898Z,11.02
2023-03-05T05:16:13.205Z,13.18
2023-03-05T05:18:40.296Z,15.45
2023-03-05T05:21:09.577Z,12.15
2023-03-05T05:23:36.980Z,12.85
2023-03-05T05:26:05.979Z,14.50
2023-03-05T05:28:33.633Z,12.80
2023-03-05T05:31:01.036Z,12.57
2023-03-05T05:33:28.091Z,12.85
2023-03-05T05:35:55.209Z,9.85
2023-03-05T05:38:22.261Z,12.57
2023-03-05T05:40:49.307Z,12.30
2023-03-05T05:43:16.365Z,11.73
2023-03-05T05:45:43.794Z,12.88
2023-03-05T05:48:11.007Z,15.70
2023-03-05T05:50:39.433Z,12.38
2023-03-05T05:53:06.499Z,15.00
2023-03-05T05:55:33.616Z,14.52
2023-03-05T05:58:00.681Z,14.98
2023-03-05T06:00:27.814Z,15.95
2023-03-05T06:02:55.013Z,15.73
2023-03-05T06:05:22.287Z,15.88
2023-03-05T06:07:49.295Z,16.25
2023-03-05T06:10:16.419Z,14.73
2023-03-05T06:12:43.693Z,14.95
2023-03-05T06:15:11.020Z,13.75
2023-03-05T06:17:38.550Z,14.73
2023-03-05T06:20:07.116Z,13.77
2023-03-05T06:22:39.140Z,14.70
2023-03-05T06:25:10.036Z,13.35
2023-03-05T06:27:37.933Z,14.50
2023-03-05T06:30:06.592Z,16.75
2023-03-05T06:32:33.921Z,16.92
2023-03-05T06:35:01.009Z,14.07
2023-03-05T06:37:28.186Z,13.85
2023-03-05T06:39:55.291Z,14.85
2023-03-05T06:42:22.515Z,14.90
2023-03-05T06:44:49.576Z,14.00
2023-03-05T06:47:16.683Z,15.52
2023-03-05T06:49:43.789Z,14.18
2023-03-05T06:52:12.941Z,12.50
2023-03-05T06:54:40.536Z,14.15
2023-03-05T06:57:07.611Z,14.57
2023-03-05T06:59:34.706Z,13.48
2023-03-05T07:02:01.756Z,14.88
2023-03-05T07:04:28.882Z,14.63
2023-03-05T07:06:56.092Z,13.98
2023-03-05T07:09:23.242Z,14.63
2023-03-05T07:11:50.330Z,15.63
2023-03-05T07:14:17.472Z,14.32
2023-03-05T07:16:44.528Z,14.93
2023-03-05T07:19:11.699Z,16.30
2023-03-05T07:21:40.056Z,14.00
2023-03-05T07:24:09.057Z,15.50
2023-03-05T07:26:36.583Z,15.23
2023-03-05T07:29:04.210Z,14.38
2023-03-05T07:31:32.225Z,14.25
2023-03-05T07:34:01.871Z,13.38
2023-03-05T07:36:30.930Z,14.13
2023-03-05T07:38:58.120Z,13.73
2023-03-05T07:41:25.444Z,14.23
2023-03-05T07:43:54.468Z,14.70
2023-03-05T07:46:25.673Z,13.73
2023-03-05T07:48:54.725Z,15.27
2023-03-05T07:51:23.567Z,13.77
2023-03-05T07:53:52.251Z,13.32
2023-03-05T07:56:31.900Z,15.85
2023-03-05T07:59:00.778Z,13.20
2023-03-05T08:01:29.106Z,14.43
2023-03-05T08:03:56.499Z,13.82
2023-03-05T08:06:23.869Z,13.43
2023-03-05T08:08:51.022Z,13.80
2023-03-05T08:11:18.214Z,13.75
2023-03-05T08:13:45.797Z,14.50
2023-03-05T08:16:15.953Z,14.13
2023-03-05T08:18:44.132Z,14.50
2023-03-05T08:21:22.301Z,14.48
2023-03-05T08:23:50.140Z,15.02
2023-03-05T08:26:20.777Z,13.98
2023-03-05T08:28:47.967Z,15.38
2023-03-05T08:31:17.018Z,14.50
2023-03-05T08:33:44.216Z,14.48
2023-03-05T08:36:11.341Z,16.38
2023-03-05T08:38:38.416Z,15.07
2023-03-05T08:41:06.277Z,14.63
2023-03-05T08:43:33.626Z,14.00
2023-03-05T08:46:02.193Z,15.13
2023-03-05T08:48:29.988Z,14.98
2023-03-05T08:50:57.106Z,15.18
2023-03-05T08:53:24.377Z,15.90
2023-03-05T08:55:55.780Z,13.88
2023-03-05T08:58:23.090Z,14.38
2023-03-05T09:00:50.430Z,15.25
2023-03-05T09:03:18.077Z,14.02
2023-03-05T09:05:45.257Z,12.90
2023-03-05T09:08:12.881Z,14.68
2023-03-05T09:10:42.804Z,14.38
2023-03-05T09:13:10.693Z,15.60
2023-03-05T09:15:38.599Z,15.15
2023-03-05T09:18:05.959Z,15.35
2023-03-05T09:20:34.054Z,14.82
2023-03-05T09:23:01.278Z,14.07
2023-03-05T09:25:28.421Z,14.30
2023-03-05T09:27:55.583Z,13.32
2023-03-05T09:30:22.856Z,14.65
2023-03-05T09:32:51.272Z,14.88
2023-03-05T09:35:18.503Z,14.73
2023-03-05T09:37:45.591Z,18.85
2023-03-05T09:40:17.238Z,14.40
2023-03-05T09:43:06.040Z,14.80
2023-03-05T10:18:05.945Z,15.03
2023-03-05T10:20:38.949Z,15.75
2023-03-05T10:23:08.767Z,12.90
2023-03-05T10:25:47.952Z,14.75
2023-03-05T10:28:36.479Z,14.85
2023-03-05T10:31:18.745Z,13.95
2023-03-05T10:33:59.429Z,14.90
2023-03-05T10:36:41.771Z,14.30
2023-03-05T10:39:40.516Z,13.30
2023-03-05T10:42:21.716Z,13.73
2023-03-05T10:44:54.976Z,14.90
2023-03-05T10:47:24.243Z,14.55
2023-03-05T10:49:54.653Z,15.20
2023-03-05T10:52:35.436Z,15.10
2023-03-05T10:55:13.286Z,14.18
2023-03-05T10:57:40.456Z,15.30
2023-03-05T11:00:13.814Z,15.75
2023-03-05T11:02:58.044Z,15.75
2023-03-05T11:05:47.626Z,14.05
2023-03-05T11:08:35.586Z,14.55
2023-03-05T11:11:20.854Z,14.50
2023-03-05T11:13:55.958Z,13.57
2023-03-05T11:16:25.044Z,14.55
2023-03-05T11:19:17.665Z,15.23
2023-03-05T11:21:46.691Z,15.73
2023-03-05T11:24:19.422Z,15.18
2023-03-05T11:26:47.465Z,13.80
2023-03-05T11:29:23.890Z,14.27
2023-03-05T11:31:51.953Z,13.85
2023-03-05T11:34:18.964Z,14.18
2023-03-05T11:36:55.733Z,14.57
2023-03-05T11:39:25.311Z,13.43
2023-03-05T11:41:54.229Z,12.18
2023-03-05T11:44:28.891Z,13.07
2023-03-05T11:47:17.503Z,12.50
2023-03-05T11:49:48.010Z,13.25
2023-03-05T11:52:32.316Z,14.23
2023-03-05T11:55:19.816Z,14.48
2023-03-05T11:57:50.683Z,12.93
2023-03-05T12:00:24.936Z,12.57
2023-03-05T12:02:56.589Z,12.02
2023-03-05T12:05:23.840Z,14.18
2023-03-05T12:07:55.553Z,14.02
2023-03-05T12:10:25.718Z,12.57
2023-03-05T12:13:23.825Z,13.55
2023-03-05T12:16:09.912Z,13.27
2023-03-05T12:18:55.178Z,12.55
2023-03-05T12:21:37.128Z,12.57
2023-03-05T12:24:27.344Z,13.77
2023-03-05T12:27:04.214Z,12.80
2023-03-05T12:29:31.469Z,14.23
2023-03-05T12:32:01.961Z,12.82
2023-03-05T12:34:40.959Z,12.82
2023-03-05T12:37:34.882Z,13.10
2023-03-05T12:40:12.822Z,14.10
2023-03-05T12:42:46.032Z,13.75
2023-03-05T12:45:14.553Z,13.48
2023-03-05T12:47:45.210Z,13.90
2023-03-05T12:50:27.185Z,13.85
2023-03-05T12:52:59.861Z,13.98
2023-03-05T12:55:47.717Z,15.10
2023-03-05T12:58:40.265Z,14.45
2023-03-05T13:01:25.936Z,15.18
2023-03-05T13:04:05.289Z,15.63
2023-03-05T13:06:35.698Z,16.58
2023-03-05T13:09:14.918Z,17.73
2023-03-05T13:11:45.454Z,17.15
2023-03-05T13:14:30.565Z,16.77
2023-03-05T13:16:58.314Z,17.77
2023-03-05T13:19:25.474Z,18.77
2023-03-05T13:22:00.751Z,19.42
2023-03-05T13:24:29.375Z,17.25
2023-03-05T13:26:56.981Z,17.77
2023-03-05T13:29:30.900Z,18.45
2023-03-05T13:32:01.907Z,18.65
2023-03-05T13:34:41.100Z,17.85
2023-03-05T13:37:22.505Z,17.05
2023-03-05T13:40:00.231Z,16.95
2023-03-05T13:42:34.749Z,17.90
2023-03-05T13:45:20.536Z,16.85
2023-03-05T13:47:55.191Z,17.13
2023-03-05T13:50:31.514Z,17.83
2023-03-05T13:53:19.471Z,18.58
2023-03-05T13:55:48.460Z,18.02
2023-03-05T13:58:40.874Z,17.33
2023-03-05T14:02:08.436Z,18.65
2023-03-05T14:04:54.410Z,19.58
2023-03-05T14:07:34.687Z,18.05
2023-03-05T14:10:03.307Z,17.15
2023-03-05T14:12:36.178Z,19.80
2023-03-05T14:15:16.901Z,18.70
2023-03-05T14:17:44.188Z,18.83
2023-03-05T14:20:14.243Z,18.80
2023-03-05T14:22:48.654Z,19.42
2023-03-05T14:25:39.798Z,17.25
2023-03-05T14:28:25.429Z,19.35
2023-03-05T14:30:55.992Z,19.30
2023-03-05T14:33:28.733Z,18.70
2023-03-05T14:35:57.961Z,19.23
2023-03-05T14:38:30.033Z,20.55
2023-03-05T14:40:57.657Z,19.20
2023-03-05T14:43:24.834Z,19.92
2023-03-05T14:45:51.962Z,22.73
2023-03-05T14:48:19.258Z,20.70
2023-03-05T14:50:53.209Z,27.27
2023-03-05T14:53:25.001Z,21.73
2023-03-05T14:55:57.748Z,19.50
2023-03-05T14:58:27.717Z,21.58
2023-03-05T15:00:55.706Z,21.08
2023-03-05T15:03:25.770Z,21.52
2023-03-05T15:05:55.711Z,22.80
2023-03-05T15:08:28.225Z,24.02
2023-03-05T15:10:56.241Z,22.27
2023-03-05T15:13:23.426Z,22.30
2023-03-05T15:15:52.675Z,22.25
2023-03-05T15:18:21.984Z,22.38
2023-03-05T15:20:52.088Z,22.77
2023-03-05T15:23:19.972Z,24.25
2023-03-05T15:25:47.449Z,21.77
2023-03-05T15:28:15.076Z,21.52
2023-03-05T15:30:46.405Z,22.20
2023-03-05T15:33:16.808Z,25.13
2023-03-05T15:35:44.332Z,30.65
2023-03-05T15:38:11.685Z,34.05
2023-03-05T15:40:38.737Z,33.83
2023-03-05T15:43:05.982Z,27.88
2023-03-05T15:45:33.818Z,21.95
2023-03-05T15:48:01.180Z,22.80
2023-03-05T15:50:28.294Z,23.30
2023-03-05T15:52:55.361Z,24.23
2023-03-05T15:55:22.466Z,25.85
2023-03-05T15:57:51.336Z,24.05
2023-03-05T16:00:26.157Z,26.55
2023-03-05T16:02:53.590Z,25.08
2023-03-05T16:05:20.737Z,24.95
2023-03-05T16:07:51.882Z,24.90
2023-03-05T16:10:22.963Z,24.77
2023-03-05T16:12:54.328Z,25.17
2023-03-05T16:15:22.514Z,24.17
2023-03-05T16:17:54.610Z,25.77
2023-03-05T16:20:22.455Z,26.38
2023-03-05T16:22:49.934Z,26.58
2023-03-05T16:25:17.860Z,25.90
2023-03-05T16:27:45.367Z,25.90
2023-03-05T16:30:15.499Z,25.85
2023-03-05T16:32:43.064Z,25.60
2023-03-05T16:35:12.493Z,24.88
2023-03-05T16:37:40.471Z,28.30
2023-03-05T16:40:10.342Z,28.05
2023-03-05T16:42:37.732Z,27.40
2023-03-05T16:45:06.736Z,28.52
2023-03-05T16:47:34.011Z,29.88
2023-03-05T16:50:01.196Z,27.33
2023-03-05T16:52:28.796Z,25.30
2023-03-05T16:54:56.182Z,24.27
2023-03-05T16:57:25.745Z,24.30
2023-03-05T16:59:54.319Z,25.58
2023-03-05T17:02:21.692Z,25.27
2023-03-05T17:04:50.497Z,27.40
2023-03-05T17:07:18.358Z,24.88
2023-03-05T17:09:47.978Z,26.58
2023-03-05T17:12:15.159Z,25.20
2023-03-05T17:14:42.251Z,27.08
2023-03-05T17:17:09.424Z,26.58
2023-03-05T17:19:37.120Z,25.48
2023-03-05T17:22:05.277Z,26.77
2023-03-05T17:24:33.688Z,25.15
2023-03-05T17:27:01.410Z,25.30
2023-03-05T17:29:29.546Z,21.77
2023-03-05T17:31:56.759Z,20.00
2023-03-05T17:34:35.648Z,20.50
2023-03-05T17:37:04.669Z,19.65
2023-03-05T17:39:31.759Z,21.33
2023-03-05T17:41:58.936Z,20.13
2023-03-05T17:44:26.097Z,19.85
2023-03-05T17:46:53.532Z,19.90
2023-03-05T17:49:20.834Z,20.58
2023-03-05T17:51:48.042Z,19.65
2023-03-05T17:54:15.245Z,22.45
2023-03-05T17:56:42.512Z,22.52
2023-03-05T17:59:10.060Z,22.98
2023-03-05T18:01:37.330Z,23.67
2023-03-05T18:04:04.786Z,22.17
2023-03-05T18:06:32.923Z,20.92
2023-03-05T18:09:00.013Z,23.08
2023-03-05T18:11:27.761Z,22.80
2023-03-05T18:13:54.959Z,23.00
2023-03-05T18:16:23.684Z,22.42
2023-03-05T18:18:51.792Z,24.67
2023-03-05T18:21:24.064Z,23.33
2023-03-05T18:23:51.751Z,22.52
2023-03-05T18:26:18.824Z,22.63
2023-03-05T18:28:46.041Z,21.65
2023-03-05T18:31:13.319Z,21.50
2023-03-05T18:33:40.879Z,23.40
2023-03-05T18:36:10.876Z,23.80
2023-03-05T18:38:38.688Z,24.90
2023-03-05T18:41:06.713Z,24.25
2023-03-05T18:43:34.395Z,24.85
2023-03-05T18:46:05.056Z,23.42
2023-03-05T18:48:32.340Z,23.42
2023-03-05T18:51:01.984Z,24.17
2023-03-05T18:53:29.351Z,24.60
2023-03-05T18:55:56.510Z,24.90
2023-03-05T18:58:25.918Z,22.52
2023-03-05T19:00:53.427Z,23.15
2023-03-05T19:03:22.591Z,26.52
2023-03-05T19:05:51.417Z,26.00
2023-03-05T19:08:18.636Z,24.58
2023-03-05T19:10:45.864Z,22.65
2023-03-05T19:13:40.137Z,22.05
2023-03-05T19:16:13.309Z,24.27
2023-03-05T19:19:09.227Z,23.83
2023-03-05T19:21:47.998Z,22.77
2023-03-05T19:24:16.160Z,23.15
2023-03-05T19:26:44.189Z,23.27
2023-03-05T19:29:12.147Z,22.10
2023-03-05T19:31:39.777Z,20.92
2023-03-05T19:34:07.004Z,21.45
2023-03-05T19:36:35.736Z,22.90
2023-03-05T19:39:04.977Z,25.45
2023-03-05T19:41:32.309Z,20.75
2023-03-05T19:43:59.534Z,21.35
2023-03-05T19:46:26.752Z,21.52
2023-03-05T19:48:53.884Z,22.02
2023-03-05T19:51:23.872Z,20.38
2023-03-05T19:53:51.804Z,17.27
2023-03-05T19:56:19.707Z,14.23
2023-03-05T19:58:49.162Z,17.85
2023-03-05T20:01:22.298Z,15.80
2023-03-05T20:03:51.649Z,18.05
2023-03-05T20:06:19.684Z,18.30
2023-03-05T20:08:46.861Z,18.02
2023-03-05T20:11:15.983Z,16.45
2023-03-05T20:13:43.800Z,15.45
2023-03-05T20:16:19.513Z,15.85
2023-03-05T20:18:47.369Z,16.07
2023-03-05T20:21:21.663Z,17.90
2023-03-05T20:23:50.629Z,16.67
2023-03-05T20:26:18.723Z,16.75
2023-03-05T20:28:46.250Z,16.70
2023-03-05T20:31:13.369Z,16.75
2023-03-05T20:33:40.481Z,16.13
2023-03-05T20:36:08.761Z,16.27
2023-03-05T20:38:35.808Z,16.33
2023-03-05T20:41:15.189Z,14.95
2023-03-05T20:43:45.049Z,11.95
2023-03-05T20:46:21.993Z,10.82
2023-03-05T20:48:51.198Z,11.27
2023-03-05T20:51:24.738Z,14.05
2023-03-05T20:53:54.419Z,14.20
2023-03-05T20:56:21.631Z,13.10
2023-03-05T20:58:48.679Z,12.38
2023-03-05T21:01:15.774Z,11.32
2023-03-05T21:03:42.918Z,12.93
2023-03-05T21:06:10.027Z,12.13
2023-03-05T21:08:37.099Z,11.60
2023-03-05T21:11:09.459Z,11.43
2023-03-05T21:13:37.395Z,11.02
2023-03-05T21:16:25.388Z,9.75
2023-03-05T21:18:52.830Z,10.00
2023-03-05T21:21:20.061Z,10.55
2023-03-05T21:23:47.439Z,12.23
2023-03-05T21:26:15.264Z,11.35
2023-03-05T21:28:42.923Z,10.07
2023-03-05T21:31:20.212Z,9.30
2023-03-05T21:33:47.586Z,10.48
2023-03-05T21:36:18.860Z,11.75
2023-03-05T21:38:50.218Z,14.43
2023-03-05T21:41:18.354Z,13.27
2023-03-05T21:43:45.564Z,14.90
2023-03-05T21:46:14.349Z,13.45
2023-03-05T21:48:41.444Z,20.17
2023-03-05T21:51:38.474Z,23.63
2023-03-05T21:54:18.976Z,25.08
2023-03-05T21:56:46.795Z,24.67
2023-03-05T21:59:14.035Z,19.83
2023-03-05T22:01:41.142Z,18.73
2023-03-05T22:04:08.267Z,19.83
2023-03-05T22:06:35.554Z,18.50
2023-03-05T22:09:02.673Z,15.85
2023-03-05T22:11:29.755Z,15.35
2023-03-05T22:13:57.159Z,16.90
2023-03-05T22:16:26.035Z,16.00
2023-03-05T22:18:53.626Z,18.63
2023-03-05T22:21:23.937Z,17.75
2023-03-05T22:23:51.103Z,23.27
2023-03-05T22:26:18.196Z,24.63
2023-03-05T22:28:45.446Z,24.88
2023-03-05T22:31:21.088Z,23.17
2023-03-05T22:33:48.585Z,22.33
2023-03-05T22:36:16.329Z,22.63
2023-03-05T22:38:43.576Z,27.85
2023-03-05T22:41:12.667Z,24.60
2023-03-05T22:43:40.560Z,18.73
2023-03-05T22:46:14.997Z,16.85
2023-03-05T22:48:42.354Z,17.08
2023-03-05T22:51:11.466Z,17.02
2023-03-05T22:53:39.603Z,17.65
2023-03-05T22:56:12.832Z,17.67
2023-03-05T22:58:40.413Z,14.63
2023-03-05T23:01:14.305Z,15.15
2023-03-05T23:04:02.347Z,15.10
2023-03-05T23:06:40.201Z,15.00
2023-03-05T23:09:07.349Z,19.23
2023-03-05T23:11:34.632Z,18.42
2023-03-05T23:14:01.770Z,16.00
2023-03-05T23:16:28.859Z,16.05
2023-03-05T23:18:56.275Z,14.48
2023-03-05T23:21:23.322Z,15.15
2023-03-05T23:23:50.577Z,14.32
2023-03-05T23:26:17.690Z,18.88
2023-03-05T23:28:44.775Z,14.68
2023-03-05T23:31:11.984Z,13.40
2023-03-05T23:33:39.181Z,12.45
2023-03-05T23:36:06.525Z,12.48
2023-03-05T23:38:33.785Z,14.80
2023-03-05T23:41:02.959Z,13.82
2023-03-05T23:43:30.817Z,11.13
2023-03-05T23:45:58.125Z,10.27
2023-03-05T23:48:26.769Z,9.48
2023-03-05T23:50:54.871Z,11.13
2023-03-05T23:53:24.831Z,10.50
2023-03-05T23:55:52.594Z,11.00
2023-03-05T23:58:20.684Z,11.57
